createdAt,value
2023-03-02T00:02:07.094Z,9.40
2023-03-02T00:04:46.891Z,9.44
2023-03-02T00:07:20.036Z,9.35
2023-03-02T00:09:48.027Z,9.48
2023-03-02T00:12:16.518Z,9.57
2023-03-02T00:14:44.556Z,9.53
2023-03-02T00:17:12.901Z,9.47
2023-03-02T00:19:42.520Z,9.49
2023-03-02T00:22:11.201Z,9.41
2023-03-02T00:24:39.357Z,9.49
2023-03-02T00:27:07.307Z,9.44
2023-03-02T00:29:35.312Z,9.56
2023-03-02T00:32:04.201Z,9.56
2023-03-02T00:34:32.619Z,9.63
2023-03-02T00:37:00.721Z,9.62
2023-03-02T00:39:28.682Z,9.67
2023-03-02T00:41:56.654Z,9.66
2023-03-02T00:44:24.542Z,9.54
2023-03-02T00:46:52.490Z,9.56
2023-03-02T00:49:20.383Z,9.55
2023-03-02T00:51:48.218Z,9.68
2023-03-02T00:54:16.180Z,9.54
2023-03-02T00:56:44.463Z,9.58
2023-03-02T00:59:29.094Z,9.58
2023-03-02T01:02:29.617Z,9.46
2023-03-02T01:04:57.692Z,9.45
2023-03-02T01:07:26.473Z,9.38
2023-03-02T01:09:54.531Z,9.34
2023-03-02T01:12:23.064Z,9.32
2023-03-02T01:14:51.106Z,9.66
2023-03-02T01:17:22.496Z,9.49
2023-03-02T01:19:50.437Z,9.75
2023-03-02T01:22:19.513Z,9.64
2023-03-02T01:24:47.421Z,9.64
2023-03-02T01:27:15.390Z,9.58
2023-03-02T01:29:43.392Z,9.62
2023-03-02T01:32:11.570Z,9.58
2023-03-02T01:34:39.571Z,9.50
2023-03-02T01:37:07.432Z,9.60
2023-03-02T01:39:35.330Z,9.57
2023-03-02T01:42:03.246Z,9.51
2023-03-02T01:44:52.502Z,9.44
2023-03-02T01:47:47.296Z,9.51
2023-03-02T01:50:26.727Z,9.59
2023-03-02T01:52:58.436Z,9.47
2023-03-02T01:55:30.989Z,9.48
2023-03-02T01:58:00.644Z,9.34
2023-03-02T02:00:33.494Z,9.43
2023-03-02T02:03:09.946Z,9.57
2023-03-02T02:05:41.328Z,9.37
2023-03-02T02:08:09.945Z,9.41
2023-03-02T02:10:39.781Z,9.34
2023-03-02T02:13:11.810Z,9.30
2023-03-02T02:15:41.738Z,9.27
2023-03-02T02:18:10.006Z,9.19
2023-03-02T02:20:46.883Z,9.11
2023-03-02T02:23:28.160Z,9.11
2023-03-02T02:25:56.169Z,9.11
2023-03-02T02:28:42.597Z,9.07
2023-03-02T02:31:10.475Z,9.10
2023-03-02T02:33:42.404Z,8.96
2023-03-02T02:36:27.199Z,8.81
2023-03-02T02:38:56.759Z,8.78
2023-03-02T02:41:30.046Z,8.73
2023-03-02T02:43:58.411Z,8.58
2023-03-02T02:46:27.383Z,8.67
2023-03-02T02:48:56.400Z,8.47
2023-03-02T02:51:29.075Z,8.43
2023-03-02T02:54:00.483Z,8.41
2023-03-02T02:56:36.338Z,8.47
2023-03-02T02:59:18.335Z,8.57
2023-03-02T03:01:47.803Z,8.37
2023-03-02T03:04:22.470Z,8.36
2023-03-02T03:06:58.045Z,8.32
2023-03-02T03:09:26.918Z,8.30
2023-03-02T03:12:09.386Z,8.32
2023-03-02T03:14:41.387Z,8.30
2023-03-02T03:17:14.564Z,8.44
2023-03-02T03:19:49.329Z,8.44
2023-03-02T03:22:18.077Z,8.44
2023-03-02T03:24:48.744Z,8.54
2023-03-02T03:27:18.824Z,8.50
2023-03-02T03:29:50.685Z,8.30
2023-03-02T03:32:21.997Z,8.30
2023-03-02T03:34:53.204Z,8.35
2023-03-02T03:37:28.786Z,8.44
2023-03-02T03:39:56.829Z,8.42
2023-03-02T03:42:24.726Z,8.45
2023-03-02T03:44:54.450Z,8.44
2023-03-02T03:47:22.639Z,8.31
2023-03-02T03:49:52.064Z,8.34
2023-03-02T03:52:31.033Z,8.42
2023-03-02T03:55:11.434Z,8.30
2023-03-02T03:57:39.923Z,8.31
2023-03-02T04:00:11.126Z,8.26
2023-03-02T04:02:42.223Z,8.24
2023-03-02T04:05:12.440Z,8.22
2023-03-02T04:07:40.850Z,8.17
2023-03-02T04:10:10.163Z,8.14
2023-03-02T04:12:41.776Z,8.10
2023-03-02T04:15:15.068Z,8.09
2023-03-02T04:17:45.267Z,8.12
2023-03-02T04:20:17.089Z,8.15
2023-03-02T04:22:51.040Z,8.19
2023-03-02T04:25:22.940Z,8.16
2023-03-02T04:27:54.555Z,8.05
2023-03-02T04:30:26.677Z,7.99
2023-03-02T04:32:57.812Z,8.01
2023-03-02T04:35:28.930Z,8.06
2023-03-02T04:37:57.260Z,8.04
2023-03-02T04:40:25.833Z,7.98
2023-03-02T04:42:53.798Z,7.89
2023-03-02T04:45:21.746Z,8.07
2023-03-02T04:47:49.686Z,8.05
2023-03-02T04:50:17.652Z,7.88
2023-03-02T04:52:45.656Z,7.98
2023-03-02T04:55:23.514Z,8.02
2023-03-02T04:57:51.536Z,7.92
2023-03-02T05:00:21.197Z,7.98
2023-03-02T05:02:49.094Z,7.93
2023-03-02T05:05:19.833Z,7.88
2023-03-02T05:07:48.110Z,7.93
2023-03-02T05:10:17.777Z,7.88
2023-03-02T05:12:55.498Z,7.93
2023-03-02T05:15:37.298Z,7.94
2023-03-02T05:18:09.205Z,7.88
2023-03-02T05:20:37.544Z,7.85
2023-03-02T05:23:07.705Z,7.90
2023-03-02T05:25:37.982Z,7.88
2023-03-02T05:28:06.273Z,7.94
2023-03-02T05:30:37.906Z,7.85
2023-03-02T05:33:06.033Z,7.78
2023-03-02T05:35:34.090Z,7.83
2023-03-02T05:38:02.034Z,7.88
2023-03-02T05:40:30.073Z,7.85
2023-03-02T05:42:58.098Z,7.81
2023-03-02T05:45:32.189Z,7.74
2023-03-02T05:48:00.115Z,7.74
2023-03-02T05:50:28.165Z,7.73
2023-03-02T05:52:56.194Z,7.85
2023-03-02T05:55:24.728Z,7.90
2023-03-02T05:57:53.532Z,7.92
2023-03-02T06:00:21.876Z,7.85
2023-03-02T06:02:49.849Z,7.84
2023-03-02T06:05:20.105Z,7.84
2023-03-02T06:07:48.052Z,7.88
2023-03-02T06:10:16.221Z,7.88
2023-03-02T06:12:44.277Z,7.93
2023-03-02T06:15:12.382Z,7.99
2023-03-02T06:17:40.549Z,8.08
2023-03-02T06:20:11.531Z,7.95
2023-03-02T06:22:47.141Z,7.87
2023-03-02T06:25:21.109Z,7.88
2023-03-02T06:27:53.986Z,7.89
2023-03-02T06:30:25.182Z,7.89
2023-03-02T06:32:53.119Z,7.98
2023-03-02T06:35:21.283Z,8.01
2023-03-02T06:37:49.342Z,8.00
2023-03-02T06:40:17.566Z,8.09
2023-03-02T06:42:45.610Z,8.04
2023-03-02T06:45:13.543Z,8.17
2023-03-02T06:47:41.638Z,8.24
2023-03-02T06:50:11.829Z,8.34
2023-03-02T06:52:39.840Z,8.23
2023-03-02T06:55:08.327Z,8.29
2023-03-02T06:57:36.394Z,8.31
2023-03-02T07:00:10.317Z,8.40
2023-03-02T07:02:38.426Z,8.24
2023-03-02T07:05:07.226Z,8.33
2023-03-02T07:07:35.397Z,8.38
2023-03-02T07:10:04.350Z,8.42
2023-03-02T07:12:32.691Z,8.54
2023-03-02T07:15:00.774Z,8.56
2023-03-02T07:17:28.829Z,8.64
2023-03-02T07:19:57.060Z,8.67
2023-03-02T07:22:25.102Z,8.66
2023-03-02T07:24:53.156Z,8.67
2023-03-02T07:27:21.187Z,8.75
2023-03-02T07:29:49.498Z,8.83
2023-03-02T07:32:17.651Z,8.96
2023-03-02T07:34:45.617Z,9.00
2023-03-02T07:37:13.694Z,8.95
2023-03-02T07:39:41.589Z,9.01
2023-03-02T07:42:12.524Z,9.17
2023-03-02T07:44:43.298Z,9.20
2023-03-02T07:47:11.356Z,9.28
2023-03-02T07:49:39.636Z,9.16
2023-03-02T07:52:07.695Z,9.23
2023-03-02T07:54:35.648Z,9.29
2023-03-02T07:57:03.756Z,9.39
2023-03-02T07:59:31.700Z,9.43
2023-03-02T08:01:59.879Z,9.42
2023-03-02T08:04:28.324Z,9.47
2023-03-02T08:06:56.380Z,9.67
2023-03-02T08:09:24.712Z,9.76
2023-03-02T08:11:52.609Z,9.92
2023-03-02T08:14:20.582Z,10.07
2023-03-02T08:16:48.681Z,10.24
2023-03-02T08:19:16.640Z,10.22
2023-03-02T08:21:44.940Z,10.56
2023-03-02T08:24:13.140Z,10.69
2023-03-02T08:26:41.196Z,10.85
2023-03-02T08:29:09.698Z,11.01
2023-03-02T08:31:37.689Z,11.08
2023-03-02T08:34:06.152Z,11.25
2023-03-02T08:36:34.364Z,11.36
2023-03-02T08:39:02.830Z,11.54
2023-03-02T08:41:30.970Z,11.62
2023-03-02T08:43:59.141Z,11.75
2023-03-02T08:46:27.165Z,11.94
2023-03-02T08:48:55.283Z,11.93
2023-03-02T08:51:25.677Z,12.14
2023-03-02T08:53:55.661Z,12.23
2023-03-02T08:56:32.687Z,11.92
2023-03-02T08:59:04.072Z,11.82
2023-03-02T09:01:36.363Z,11.95
2023-03-02T09:04:06.922Z,12.10
2023-03-02T09:06:38.816Z,11.99
2023-03-02T09:09:08.230Z,11.92
2023-03-02T09:11:37.035Z,12.10
2023-03-02T09:14:05.484Z,12.18
2023-03-02T09:16:33.495Z,12.25
2023-03-02T09:19:01.847Z,12.22
2023-03-02T09:21:29.860Z,12.26
2023-03-02T09:23:58.638Z,12.09
2023-03-02T09:26:28.033Z,12.34
2023-03-02T09:28:56.940Z,12.33
2023-03-02T09:31:25.386Z,12.27
2023-03-02T09:33:53.465Z,12.26
2023-03-02T09:36:24.211Z,12.35
2023-03-02T09:38:52.419Z,12.31
2023-03-02T09:41:20.497Z,12.52
2023-03-02T09:43:48.482Z,12.65
2023-03-02T09:46:32.151Z,12.73
2023-03-02T09:49:32.375Z,12.71
2023-03-02T09:52:19.030Z,12.84
2023-03-02T09:54:47.102Z,13.11
2023-03-02T09:57:24.292Z,13.26
2023-03-02T10:00:18.193Z,13.16
2023-03-02T10:02:49.063Z,13.36
2023-03-02T10:05:23.457Z,13.25
2023-03-02T10:07:52.152Z,13.22
2023-03-02T10:10:40.855Z,13.17
2023-03-02T10:13:20.507Z,12.93
2023-03-02T10:16:14.462Z,12.89
2023-03-02T10:18:48.452Z,12.87
2023-03-02T10:21:33.329Z,12.93
2023-03-02T10:24:10.796Z,12.83
2023-03-02T10:26:45.076Z,13.02
2023-03-02T10:29:30.932Z,13.02
2023-03-02T10:32:23.760Z,13.09
2023-03-02T10:34:53.635Z,12.83
2023-03-02T10:37:28.878Z,12.80
2023-03-02T10:39:57.276Z,12.82
2023-03-02T10:42:42.905Z,12.80
2023-03-02T10:45:43.027Z,12.87
2023-03-02T10:48:14.380Z,12.90
2023-03-02T10:50:44.238Z,12.85
2023-03-02T10:53:18.189Z,12.83
2023-03-02T10:55:49.805Z,12.67
2023-03-02T10:58:32.299Z,12.70
2023-03-02T11:01:06.088Z,12.85
2023-03-02T11:03:34.472Z,12.76
2023-03-02T11:06:19.389Z,12.76
2023-03-02T11:08:57.807Z,12.66
2023-03-02T11:11:26.534Z,12.69
2023-03-02T11:13:56.635Z,12.69
2023-03-02T11:16:32.290Z,12.63
2023-03-02T11:19:14.395Z,12.80
2023-03-02T11:22:11.035Z,12.68
2023-03-02T11:24:49.437Z,12.64
2023-03-02T11:27:22.950Z,12.69
2023-03-02T11:29:57.573Z,12.68
2023-03-02T11:32:36.278Z,12.61
2023-03-02T11:35:11.750Z,12.65
2023-03-02T11:37:48.439Z,12.64
2023-03-02T11:40:31.750Z,12.64
2023-03-02T11:43:02.136Z,12.64
2023-03-02T11:45:35.638Z,12.70
2023-03-02T11:48:08.488Z,12.73
2023-03-02T11:50:54.712Z,12.73
2023-03-02T11:53:26.616Z,12.66
2023-03-02T11:55:54.649Z,12.51
2023-03-02T11:58:26.191Z,12.53
2023-03-02T12:00:56.292Z,12.58
2023-03-02T12:03:38.394Z,12.64
2023-03-02T12:06:28.874Z,12.78
2023-03-02T12:09:25.001Z,12.66
2023-03-02T12:12:00.722Z,12.79
2023-03-02T12:14:38.411Z,12.82
2023-03-02T12:17:26.062Z,12.85
2023-03-02T12:20:07.976Z,12.88
2023-03-02T12:22:38.070Z,12.76
2023-03-02T12:25:21.351Z,12.96
2023-03-02T12:27:52.831Z,12.77
2023-03-02T12:30:28.463Z,12.82
2023-03-02T12:33:19.831Z,12.63
2023-03-02T12:35:51.359Z,13.01
2023-03-02T12:38:31.279Z,12.97
2023-03-02T12:41:46.922Z,13.23
2023-03-02T12:44:31.960Z,13.22
2023-03-02T12:47:02.956Z,12.93
2023-03-02T12:49:47.617Z,12.73
2023-03-02T12:52:58.145Z,12.92
2023-03-02T12:55:26.680Z,12.93
2023-03-02T12:58:01.607Z,12.84
2023-03-02T13:00:33.018Z,12.97
2023-03-02T13:03:07.662Z,12.96
2023-03-02T13:05:36.760Z,13.20
2023-03-02T13:08:21.407Z,13.46
2023-03-02T13:10:50.297Z,13.54
2023-03-02T13:13:27.145Z,13.59
2023-03-02T13:15:58.630Z,13.92
2023-03-02T13:18:33.363Z,14.30
2023-03-02T13:21:04.046Z,14.14
2023-03-02T13:23:33.840Z,14.53
2023-03-02T13:26:04.875Z,14.16
2023-03-02T13:28:38.597Z,14.26
2023-03-02T13:31:19.928Z,14.14
2023-03-02T13:33:50.710Z,13.68
2023-03-02T13:36:31.132Z,13.74
2023-03-02T13:39:00.531Z,13.47
2023-03-02T13:41:31.530Z,13.23
2023-03-02T13:44:11.147Z,13.17
2023-03-02T13:46:41.762Z,13.36
2023-03-02T13:49:11.474Z,13.30
2023-03-02T13:51:43.308Z,13.16
2023-03-02T13:54:26.878Z,13.30
2023-03-02T13:56:57.189Z,13.39
2023-03-02T13:59:25.515Z,13.15
2023-03-02T14:01:53.413Z,13.29
2023-03-02T14:04:26.013Z,13.02
2023-03-02T14:06:55.142Z,13.24
2023-03-02T14:09:23.095Z,13.28
2023-03-02T14:11:54.034Z,13.41
2023-03-02T14:14:25.266Z,13.49
2023-03-02T14:16:53.144Z,13.50
2023-03-02T14:19:21.517Z,13.45
2023-03-02T14:21:49.375Z,13.47
2023-03-02T14:24:17.184Z,13.52
2023-03-02T14:26:48.202Z,13.47
2023-03-02T14:29:26.922Z,13.42
2023-03-02T14:31:56.461Z,13.59
2023-03-02T14:34:24.525Z,13.57
2023-03-02T14:36:55.512Z,13.50
2023-03-02T14:39:32.774Z,13.56
2023-03-02T14:42:00.769Z,13.64
2023-03-02T14:44:28.618Z,13.72
2023-03-02T14:46:57.723Z,13.87
2023-03-02T14:49:25.862Z,14.03
2023-03-02T14:52:23.717Z,14.21
2023-03-02T14:54:59.040Z,14.39
2023-03-02T14:57:29.407Z,14.36
2023-03-02T15:00:00.086Z,14.59
2023-03-02T15:02:28.865Z,14.40
2023-03-02T15:04:57.672Z,14.54
2023-03-02T15:07:27.890Z,14.57
2023-03-02T15:09:57.702Z,14.54
2023-03-02T15:12:25.620Z,14.70
2023-03-02T15:14:53.524Z,14.71
2023-03-02T15:17:21.423Z,14.32
2023-03-02T15:19:49.409Z,14.27
2023-03-02T15:22:17.682Z,14.32
2023-03-02T15:24:45.616Z,14.30
2023-03-02T15:27:13.471Z,14.27
2023-03-02T15:29:46.341Z,13.74
2023-03-02T15:32:15.070Z,13.78
2023-03-02T15:34:43.416Z,13.73
2023-03-02T15:37:11.960Z,13.89
2023-03-02T15:39:40.435Z,13.81
2023-03-02T15:42:08.608Z,13.73
2023-03-02T15:44:36.521Z,13.61
2023-03-02T15:47:04.782Z,13.56
2023-03-02T15:49:33.065Z,13.43
2023-03-02T15:52:01.489Z,13.35
2023-03-02T15:54:29.606Z,13.42
2023-03-02T15:56:57.931Z,13.39
2023-03-02T15:59:28.734Z,13.34
2023-03-02T16:02:02.351Z,13.24
2023-03-02T16:04:32.656Z,13.34
2023-03-02T16:07:00.945Z,13.20
2023-03-02T16:09:29.262Z,13.12
2023-03-02T16:11:57.914Z,13.22
2023-03-02T16:14:26.300Z,13.18
2023-03-02T16:16:54.367Z,13.25
2023-03-02T16:19:22.232Z,13.17
2023-03-02T16:21:50.149Z,13.01
2023-03-02T16:24:18.151Z,13.05
2023-03-02T16:26:46.096Z,12.94
2023-03-02T16:29:14.274Z,12.71
2023-03-02T16:31:45.511Z,12.70
2023-03-02T16:34:14.241Z,12.55
2023-03-02T16:36:42.632Z,12.41
2023-03-02T16:39:11.974Z,12.41
2023-03-02T16:41:42.643Z,12.47
2023-03-02T16:44:11.882Z,12.42
2023-03-02T16:46:40.416Z,12.35
2023-03-02T16:49:08.376Z,12.31
2023-03-02T16:51:36.563Z,12.24
2023-03-02T16:54:05.319Z,12.14
2023-03-02T16:56:51.904Z,12.19
2023-03-02T16:59:19.847Z,12.02
2023-03-02T17:01:47.893Z,11.90
2023-03-02T17:04:18.712Z,11.97
2023-03-02T17:07:03.112Z,12.04
2023-03-02T17:09:31.730Z,11.89
2023-03-02T17:11:59.755Z,11.85
2023-03-02T17:14:28.360Z,11.82
2023-03-02T17:16:59.616Z,11.79
2023-03-02T17:19:29.732Z,11.67
2023-03-02T17:22:02.025Z,11.63
2023-03-02T17:24:30.529Z,11.56
2023-03-02T17:26:58.779Z,11.60
2023-03-02T17:29:27.071Z,11.60
2023-03-02T17:31:55.564Z,11.65
2023-03-02T17:34:23.814Z,11.69
2023-03-02T17:36:51.886Z,11.51
2023-03-02T17:39:20.182Z,11.59
2023-03-02T17:41:48.302Z,11.61
2023-03-02T17:44:16.460Z,11.55
2023-03-02T17:46:45.880Z,11.50
2023-03-02T17:49:14.160Z,11.50
2023-03-02T17:51:42.330Z,11.39
2023-03-02T17:54:10.479Z,11.42
2023-03-02T17:56:38.686Z,11.41
2023-03-02T17:59:07.191Z,11.34
2023-03-02T18:01:35.572Z,11.30
2023-03-02T18:04:03.858Z,11.32
2023-03-02T18:06:32.292Z,11.12
2023-03-02T18:09:00.335Z,11.06
2023-03-02T18:11:28.486Z,11.02
2023-03-02T18:13:56.761Z,11.13
2023-03-02T18:16:28.357Z,11.23
2023-03-02T18:18:57.649Z,11.11
2023-03-02T18:21:26.172Z,11.08
2023-03-02T18:23:55.023Z,11.07
2023-03-02T18:26:23.148Z,11.09
2023-03-02T18:28:51.338Z,11.05
2023-03-02T18:31:20.527Z,11.11
2023-03-02T18:33:49.196Z,11.04
2023-03-02T18:36:17.321Z,11.00
2023-03-02T18:38:45.631Z,10.97
2023-03-02T18:41:14.516Z,10.91
2023-03-02T18:43:43.105Z,10.86
2023-03-02T18:46:25.635Z,10.69
2023-03-02T18:48:55.678Z,10.69
2023-03-02T18:51:25.699Z,10.62
2023-03-02T18:53:54.907Z,10.42
2023-03-02T18:56:23.729Z,10.43
2023-03-02T18:58:52.445Z,10.38
2023-03-02T19:01:21.532Z,10.43
2023-03-02T19:03:50.278Z,10.37
2023-03-02T19:06:18.462Z,10.37
2023-03-02T19:08:48.444Z,10.40
2023-03-02T19:11:16.583Z,10.35
2023-03-02T19:13:44.644Z,10.44
2023-03-02T19:16:14.265Z,10.55
2023-03-02T19:18:42.595Z,10.43
2023-03-02T19:21:10.751Z,10.36
2023-03-02T19:23:38.950Z,10.33
2023-03-02T19:26:07.677Z,10.35
2023-03-02T19:28:37.565Z,10.32
2023-03-02T19:31:09.130Z,10.31
2023-03-02T19:33:37.965Z,10.15
2023-03-02T19:36:07.054Z,10.12
2023-03-02T19:38:38.118Z,9.97
2023-03-02T19:41:06.505Z,10.09
2023-03-02T19:43:34.721Z,9.95
2023-03-02T19:46:03.006Z,9.83
2023-03-02T19:48:31.341Z,9.78
2023-03-02T19:50:59.522Z,9.89
2023-03-02T19:53:27.650Z,9.83
2023-03-02T19:56:03.847Z,9.80
2023-03-02T19:58:33.720Z,9.82
2023-03-02T20:01:04.296Z,9.70
2023-03-02T20:03:32.500Z,9.60
2023-03-02T20:06:00.772Z,9.46
2023-03-02T20:08:29.383Z,9.52
2023-03-02T20:10:57.405Z,9.55
2023-03-02T20:13:27.149Z,9.43
2023-03-02T20:15:55.441Z,9.32
2023-03-02T20:18:23.469Z,9.18
2023-03-02T20:20:51.574Z,9.23
2023-03-02T20:23:19.729Z,9.27
2023-03-02T20:25:48.497Z,9.22
2023-03-02T20:28:22.873Z,9.19
2023-03-02T20:30:56.879Z,9.12
2023-03-02T20:33:32.292Z,9.14
2023-03-02T20:36:04.490Z,9.14
2023-03-02T20:38:38.221Z,9.12
2023-03-02T20:41:09.387Z,9.07
2023-03-02T20:43:38.730Z,9.04
2023-03-02T20:46:10.862Z,9.08
2023-03-02T20:48:40.897Z,8.96
2023-03-02T20:51:10.829Z,9.05
2023-03-02T20:53:39.329Z,9.03
2023-03-02T20:56:07.525Z,8.88
2023-03-02T20:58:38.799Z,8.82
2023-03-02T21:01:31.530Z,8.90
2023-03-02T21:04:00.035Z,8.77
2023-03-02T21:06:29.756Z,8.71
2023-03-02T21:09:05.042Z,8.93
2023-03-02T21:11:34.548Z,9.05
2023-03-02T21:14:03.199Z,8.91
2023-03-02T21:16:36.325Z,8.59
2023-03-02T21:19:10.335Z,8.68
2023-03-02T21:21:42.326Z,8.62
2023-03-02T21:24:13.261Z,8.54
2023-03-02T21:26:41.887Z,8.41
2023-03-02T21:29:11.961Z,8.68
2023-03-02T21:31:42.543Z,8.72
2023-03-02T21:34:12.716Z,8.74
2023-03-02T21:36:41.129Z,8.65
2023-03-02T21:39:09.891Z,8.61
2023-03-02T21:41:38.116Z,8.58
2023-03-02T21:44:06.861Z,8.59
2023-03-02T21:46:37.910Z,8.67
2023-03-02T21:49:06.567Z,8.69
2023-03-02T21:51:34.987Z,8.56
2023-03-02T21:54:03.437Z,8.55
2023-03-02T21:56:31.408Z,8.33
2023-03-02T21:58:59.822Z,8.22
2023-03-02T22:01:30.012Z,8.20
2023-03-02T22:03:57.966Z,8.30
2023-03-02T22:06:29.732Z,8.35
2023-03-02T22:08:58.038Z,8.31
2023-03-02T22:11:34.485Z,8.41
2023-03-02T22:14:12.359Z,8.19
2023-03-02T22:16:43.045Z,8.03
2023-03-02T22:19:38.520Z,8.04
2023-03-02T22:22:19.435Z,8.01
2023-03-02T22:24:51.338Z,8.17
2023-03-02T22:27:28.606Z,7.99
2023-03-02T22:29:59.479Z,8.08
2023-03-02T22:32:30.455Z,8.06
2023-03-02T22:35:01.906Z,7.85
2023-03-02T22:37:33.566Z,7.84
2023-03-02T22:40:08.512Z,7.78
2023-03-02T22:42:36.561Z,7.72
2023-03-02T22:45:17.361Z,7.79
2023-03-02T22:47:49.411Z,7.68
2023-03-02T22:50:25.540Z,7.72
2023-03-02T22:52:56.284Z,7.70
2023-03-02T22:55:43.254Z,7.55
2023-03-02T22:58:43.836Z,7.54
2023-03-02T23:01:21.278Z,7.51
2023-03-02T23:03:52.884Z,7.51
2023-03-02T23:06:34.031Z,7.55
2023-03-02T23:09:04.889Z,7.78
2023-03-02T23:11:38.198Z,7.61
2023-03-02T23:14:21.384Z,7.60
2023-03-02T23:17:13.011Z,7.69
2023-03-02T23:19:40.970Z,7.62
2023-03-02T23:22:09.735Z,7.61
2023-03-02T23:24:37.662Z,7.63
2023-03-02T23:27:05.904Z,7.49
2023-03-02T23:29:33.845Z,7.42
2023-03-02T23:32:02.263Z,7.42
2023-03-02T23:34:31.413Z,7.39
2023-03-02T23:37:00.232Z,7.40
2023-03-02T23:39:28.171Z,7.39
2023-03-02T23:41:56.322Z,7.23
2023-03-02T23:44:24.231Z,7.18
2023-03-02T23:46:52.569Z,7.24
2023-03-02T23:49:20.524Z,7.50
2023-03-02T23:51:48.843Z,7.64
2023-03-02T23:54:16.818Z,7.38
2023-03-02T23:56:44.640Z,7.27
2023-03-02T23:59:12.607Z,7.27
